sensor_id;sensor_type;location;lat;lon;timestamp;P1;durP1;ratioP1;P2;durP2;ratioP2
21239;SDS011;10778;48.962;9.018;2022-11-11T00:02:11;13.05;;;4.80;;
21239;SDS011;10778;48.962;9.018;2022-11-11T00:04:55;8.75;;;4.60;;
21239;SDS011;10778;48.962;9.018;2022-11-11T00:07:40;7.30;;;4.60;;
21239;SDS011;10778;48.962;9.018;2022-11-11T00:10:25;5.63;;;3.63;;
21239;SDS011;10778;48.962;9.018;2022-11-11T00:13:10;6.63;;;3.35;;
21239;SDS011;10778;48.962;9.018;2022-11-11T00:15:55;4.80;;;2.90;;
21239;SDS011;10778;48.962;9.018;2022-11-11T00:18:40;5.78;;;2.78;;
21239;SDS011;10778;48.962;9.018;2022-11-11T00:21:44;4.07;;;2.85;;
21239;SDS011;10778;48.962;9.018;2022-11-11T00:24:29;3.67;;;2.60;;
21239;SDS011;10778;48.962;9.018;2022-11-11T00:27:33;11.80;;;4.05;;
21239;SDS011;10778;48.962;9.018;2022-11-11T00:30:19;14.15;;;5.35;;
21239;SDS011;10778;48.962;9.018;2022-11-11T00:33:03;11.23;;;4.97;;
21239;SDS011;10778;48.962;9.018;2022-11-11T00:35:47;12.80;;;4.43;;
21239;SDS011;10778;48.962;9.018;2022-11-11T00:38:38;11.55;;;4.22;;
21239;SDS011;10778;48.962;9.018;2022-11-11T00:41:31;11.27;;;4.53;;
21239;SDS011;10778;48.962;9.018;2022-11-11T00:44:16;12.88;;;5.03;;
21239;SDS011;10778;48.962;9.018;2022-11-11T00:47:01;18.05;;;5.07;;
21239;SDS011;10778;48.962;9.018;2022-11-11T00:50:08;12.02;;;4.78;;
21239;SDS011;10778;48.962;9.018;2022-11-11T00:53:18;10.50;;;4.95;;
21239;SDS011;10778;48.962;9.018;2022-11-11T00:56:04;8.02;;;4.63;;
21239;SDS011;10778;48.962;9.018;2022-11-11T00:58:49;7.68;;;4.70;;
21239;SDS011;10778;48.962;9.018;2022-11-11T01:01:35;9.23;;;4.85;;
21239;SDS011;10778;48.962;9.018;2022-11-11T01:04:21;6.78;;;4.38;;
21239;SDS011;10778;48.962;9.018;2022-11-11T01:07:05;8.48;;;4.40;;
21239;SDS011;10778;48.962;9.018;2022-11-11T01:09:50;7.30;;;3.97;;
21239;SDS011;10778;48.962;9.018;2022-11-11T01:12:34;5.05;;;3.58;;
21239;SDS011;10778;48.962;9.018;2022-11-11T01:15:19;7.55;;;3.90;;
21239;SDS011;10778;48.962;9.018;2022-11-11T01:18:03;6.38;;;3.90;;
21239;SDS011;10778;48.962;9.018;2022-11-11T01:23:42;7.70;;;3.78;;
21239;SDS011;10778;48.962;9.018;2022-11-11T01:26:28;5.28;;;3.85;;
21239;SDS011;10778;48.962;9.018;2022-11-11T01:29:13;7.68;;;4.20;;
21239;SDS011;10778;48.962;9.018;2022-11-11T01:31:57;9.50;;;4.82;;
21239;SDS011;10778;48.962;9.018;2022-11-11T01:34:42;7.30;;;4.82;;
21239;SDS011;10778;48.962;9.018;2022-11-11T01:37:26;9.20;;;4.55;;
21239;SDS011;10778;48.962;9.018;2022-11-11T01:40:11;6.85;;;4.53;;
21239;SDS011;10778;48.962;9.018;2022-11-11T01:45:58;8.63;;;4.00;;
21239;SDS011;10778;48.962;9.018;2022-11-11T01:48:48;5.07;;;3.47;;
21239;SDS011;10778;48.962;9.018;2022-11-11T01:54:54;4.80;;;3.60;;
21239;SDS011;10778;48.962;9.018;2022-11-11T01:57:42;6.53;;;3.63;;
21239;SDS011;10778;48.962;9.018;2022-11-11T02:00:41;5.93;;;3.47;;
21239;SDS011;10778;48.962;9.018;2022-11-11T02:03:25;7.30;;;3.42;;
21239;SDS011;10778;48.962;9.018;2022-11-11T02:06:14;5.40;;;3.78;;
21239;SDS011;10778;48.962;9.018;2022-11-11T02:08:58;6.22;;;3.75;;
21239;SDS011;10778;48.962;9.018;2022-11-11T02:11:44;5.65;;;3.67;;
21239;SDS011;10778;48.962;9.018;2022-11-11T02:14:49;6.57;;;3.65;;
21239;SDS011;10778;48.962;9.018;2022-11-11T02:17:35;5.97;;;3.80;;
21239;SDS011;10778;48.962;9.018;2022-11-11T02:20:21;5.93;;;3.88;;
21239;SDS011;10778;48.962;9.018;2022-11-11T02:26:12;6.43;;;4.05;;
21239;SDS011;10778;48.962;9.018;2022-11-11T02:29:00;6.95;;;4.43;;
21239;SDS011;10778;48.962;9.018;2022-11-11T02:31:47;6.10;;;4.30;;
21239;SDS011;10778;48.962;9.018;2022-11-11T02:34:32;5.45;;;3.85;;
21239;SDS011;10778;48.962;9.018;2022-11-11T02:37:19;7.32;;;4.00;;
21239;SDS011;10778;48.962;9.018;2022-11-11T02:40:08;6.38;;;4.15;;
21239;SDS011;10778;48.962;9.018;2022-11-11T02:42:55;6.47;;;4.22;;
21239;SDS011;10778;48.962;9.018;2022-11-11T02:45:40;6.50;;;4.15;;
21239;SDS011;10778;48.962;9.018;2022-11-11T02:48:25;7.88;;;4.50;;
21239;SDS011;10778;48.962;9.018;2022-11-11T02:51:10;6.70;;;4.38;;
21239;SDS011;10778;48.962;9.018;2022-11-11T02:53:54;5.80;;;4.60;;
21239;SDS011;10778;48.962;9.018;2022-11-11T02:56:41;7.15;;;4.40;;
21239;SDS011;10778;48.962;9.018;2022-11-11T02:59:45;7.30;;;4.38;;
21239;SDS011;10778;48.962;9.018;2022-11-11T03:02:29;7.93;;;4.60;;
21239;SDS011;10778;48.962;9.018;2022-11-11T03:05:14;7.93;;;4.47;;
21239;SDS011;10778;48.962;9.018;2022-11-11T03:07:59;7.45;;;4.40;;
21239;SDS011;10778;48.962;9.018;2022-11-11T03:10:43;9.32;;;4.57;;
21239;SDS011;10778;48.962;9.018;2022-11-11T03:13:27;9.15;;;5.05;;
21239;SDS011;10778;48.962;9.018;2022-11-11T03:16:12;7.40;;;4.72;;
21239;SDS011;10778;48.962;9.018;2022-11-11T03:19:17;6.47;;;4.32;;
21239;SDS011;10778;48.962;9.018;2022-11-11T03:22:01;7.32;;;4.72;;
21239;SDS011;10778;48.962;9.018;2022-11-11T03:24:46;6.40;;;4.97;;
21239;SDS011;10778;48.962;9.018;2022-11-11T03:27:49;7.65;;;4.72;;
21239;SDS011;10778;48.962;9.018;2022-11-11T03:30:34;6.95;;;4.63;;
21239;SDS011;10778;48.962;9.018;2022-11-11T03:33:19;6.30;;;3.92;;
21239;SDS011;10778;48.962;9.018;2022-11-11T03:36:04;5.93;;;4.30;;
21239;SDS011;10778;48.962;9.018;2022-11-11T03:38:49;6.95;;;3.92;;
21239;SDS011;10778;48.962;9.018;2022-11-11T03:41:33;7.75;;;4.03;;
21239;SDS011;10778;48.962;9.018;2022-11-11T03:44:18;6.85;;;4.05;;
21239;SDS011;10778;48.962;9.018;2022-11-11T03:47:02;5.90;;;3.72;;
21239;SDS011;10778;48.962;9.018;2022-11-11T03:49:47;8.20;;;4.68;;
21239;SDS011;10778;48.962;9.018;2022-11-11T03:52:31;7.07;;;4.60;;
21239;SDS011;10778;48.962;9.018;2022-11-11T03:55:16;6.80;;;4.53;;
21239;SDS011;10778;48.962;9.018;2022-11-11T03:58:00;6.70;;;4.18;;
21239;SDS011;10778;48.962;9.018;2022-11-11T04:00:45;7.45;;;4.15;;
21239;SDS011;10778;48.962;9.018;2022-11-11T04:03:29;7.50;;;4.50;;
21239;SDS011;10778;48.962;9.018;2022-11-11T04:06:33;8.90;;;4.97;;
21239;SDS011;10778;48.962;9.018;2022-11-11T04:09:36;8.85;;;4.25;;
21239;SDS011;10778;48.962;9.018;2022-11-11T04:12:40;7.88;;;5.20;;
21239;SDS011;10778;48.962;9.018;2022-11-11T04:15:45;7.30;;;4.88;;
21239;SDS011;10778;48.962;9.018;2022-11-11T04:18:48;7.30;;;4.90;;
21239;SDS011;10778;48.962;9.018;2022-11-11T04:21:52;6.07;;;4.10;;
21239;SDS011;10778;48.962;9.018;2022-11-11T04:24:36;6.22;;;4.32;;
21239;SDS011;10778;48.962;9.018;2022-11-11T04:27:40;7.10;;;4.78;;
21239;SDS011;10778;48.962;9.018;2022-11-11T04:30:24;7.50;;;4.50;;
21239;SDS011;10778;48.962;9.018;2022-11-11T04:33:09;6.85;;;4.28;;
21239;SDS011;10778;48.962;9.018;2022-11-11T04:35:53;7.30;;;4.40;;
21239;SDS011;10778;48.962;9.018;2022-11-11T04:38:38;6.93;;;4.78;;
21239;SDS011;10778;48.962;9.018;2022-11-11T04:41:41;9.63;;;6.03;;
21239;SDS011;10778;48.962;9.018;2022-11-11T04:44:25;11.35;;;5.97;;
21239;SDS011;10778;48.962;9.018;2022-11-11T04:47:29;8.05;;;6.10;;
21239;SDS011;10778;48.962;9.018;2022-11-11T04:50:13;9.93;;;6.28;;
21239;SDS011;10778;48.962;9.018;2022-11-11T04:52:58;8.90;;;6.22;;
21239;SDS011;10778;48.962;9.018;2022-11-11T04:55:44;9.57;;;5.80;;
21239;SDS011;10778;48.962;9.018;2022-11-11T04:58:48;8.93;;;5.60;;
21239;SDS011;10778;48.962;9.018;2022-11-11T05:01:52;10.35;;;5.75;;
21239;SDS011;10778;48.962;9.018;2022-11-11T05:04:56;9.05;;;5.50;;
21239;SDS011;10778;48.962;9.018;2022-11-11T05:07:40;7.93;;;4.68;;
21239;SDS011;10778;48.962;9.018;2022-11-11T05:10:44;6.97;;;4.25;;
21239;SDS011;10778;48.962;9.018;2022-11-11T05:13:28;8.38;;;5.40;;
21239;SDS011;10778;48.962;9.018;2022-11-11T05:16:32;9.70;;;5.13;;
21239;SDS011;10778;48.962;9.018;2022-11-11T05:19:40;6.70;;;4.07;;
21239;SDS011;10778;48.962;9.018;2022-11-11T05:22:44;9.75;;;4.65;;
21239;SDS011;10778;48.962;9.018;2022-11-11T05:25:29;7.35;;;4.32;;
21239;SDS011;10778;48.962;9.018;2022-11-11T05:28:17;6.97;;;4.53;;
21239;SDS011;10778;48.962;9.018;2022-11-11T05:31:01;8.50;;;5.65;;
21239;SDS011;10778;48.962;9.018;2022-11-11T05:33:46;8.20;;;4.55;;
21239;SDS011;10778;48.962;9.018;2022-11-11T05:36:30;6.57;;;4.80;;
21239;SDS011;10778;48.962;9.018;2022-11-11T05:39:14;7.00;;;4.20;;
21239;SDS011;10778;48.962;9.018;2022-11-11T05:41:59;7.63;;;5.15;;
21239;SDS011;10778;48.962;9.018;2022-11-11T05:44:43;10.77;;;5.50;;
21239;SDS011;10778;48.962;9.018;2022-11-11T05:47:28;8.30;;;5.30;;
21239;SDS011;10778;48.962;9.018;2022-11-11T05:50:12;7.97;;;5.53;;
21239;SDS011;10778;48.962;9.018;2022-11-11T05:52:57;13.00;;;6.07;;
21239;SDS011;10778;48.962;9.018;2022-11-11T05:55:41;10.68;;;6.65;;
21239;SDS011;10778;48.962;9.018;2022-11-11T05:58:26;10.02;;;7.00;;
21239;SDS011;10778;48.962;9.018;2022-11-11T06:01:10;9.95;;;6.50;;
21239;SDS011;10778;48.962;9.018;2022-11-11T06:03:55;9.60;;;6.03;;
21239;SDS011;10778;48.962;9.018;2022-11-11T06:06:39;10.35;;;6.15;;
21239;SDS011;10778;48.962;9.018;2022-11-11T06:09:24;9.90;;;6.10;;
21239;SDS011;10778;48.962;9.018;2022-11-11T06:12:08;8.73;;;5.30;;
21239;SDS011;10778;48.962;9.018;2022-11-11T06:14:53;8.77;;;6.00;;
21239;SDS011;10778;48.962;9.018;2022-11-11T06:17:37;8.00;;;5.07;;
21239;SDS011;10778;48.962;9.018;2022-11-11T06:20:23;6.75;;;5.00;;
21239;SDS011;10778;48.962;9.018;2022-11-11T06:23:07;8.10;;;5.43;;
21239;SDS011;10778;48.962;9.018;2022-11-11T06:25:52;7.85;;;5.50;;
21239;SDS011;10778;48.962;9.018;2022-11-11T06:28:56;9.07;;;5.65;;
21239;SDS011;10778;48.962;9.018;2022-11-11T06:31:41;7.80;;;5.88;;
21239;SDS011;10778;48.962;9.018;2022-11-11T06:34:25;7.90;;;6.10;;
21239;SDS011;10778;48.962;9.018;2022-11-11T06:37:10;8.98;;;6.05;;
21239;SDS011;10778;48.962;9.018;2022-11-11T06:39:54;6.70;;;5.40;;
21239;SDS011;10778;48.962;9.018;2022-11-11T06:42:39;8.55;;;5.38;;
21239;SDS011;10778;48.962;9.018;2022-11-11T06:45:23;7.55;;;5.10;;
21239;SDS011;10778;48.962;9.018;2022-11-11T06:48:10;5.85;;;4.32;;
21239;SDS011;10778;48.962;9.018;2022-11-11T06:50:59;8.07;;;4.70;;
21239;SDS011;10778;48.962;9.018;2022-11-11T06:53:45;6.40;;;4.60;;
21239;SDS011;10778;48.962;9.018;2022-11-11T06:56:30;9.32;;;4.47;;
21239;SDS011;10778;48.962;9.018;2022-11-11T06:59:14;6.28;;;4.28;;
21239;SDS011;10778;48.962;9.018;2022-11-11T07:01:59;6.88;;;4.20;;
21239;SDS011;10778;48.962;9.018;2022-11-11T07:04:44;7.72;;;4.65;;
21239;SDS011;10778;48.962;9.018;2022-11-11T07:07:28;5.88;;;4.38;;
21239;SDS011;10778;48.962;9.018;2022-11-11T07:10:13;6.35;;;4.47;;
21239;SDS011;10778;48.962;9.018;2022-11-11T07:12:58;6.30;;;4.03;;
21239;SDS011;10778;48.962;9.018;2022-11-11T07:15:43;8.10;;;4.72;;
21239;SDS011;10778;48.962;9.018;2022-11-11T07:18:28;10.45;;;5.05;;
21239;SDS011;10778;48.962;9.018;2022-11-11T07:21:12;6.60;;;4.28;;
21239;SDS011;10778;48.962;9.018;2022-11-11T07:23:57;7.00;;;4.82;;
21239;SDS011;10778;48.962;9.018;2022-11-11T07:26:41;7.75;;;4.93;;
21239;SDS011;10778;48.962;9.018;2022-11-11T07:29:26;9.82;;;4.65;;
21239;SDS011;10778;48.962;9.018;2022-11-11T07:32:12;9.05;;;4.95;;
21239;SDS011;10778;48.962;9.018;2022-11-11T07:34:56;7.70;;;5.13;;
21239;SDS011;10778;48.962;9.018;2022-11-11T07:37:42;6.95;;;4.60;;
21239;SDS011;10778;48.962;9.018;2022-11-11T07:40:27;10.07;;;6.80;;
21239;SDS011;10778;48.962;9.018;2022-11-11T07:43:11;10.63;;;5.82;;
21239;SDS011;10778;48.962;9.018;2022-11-11T07:45:56;12.27;;;6.53;;
21239;SDS011;10778;48.962;9.018;2022-11-11T07:48:40;11.45;;;5.85;;
21239;SDS011;10778;48.962;9.018;2022-11-11T07:51:25;19.75;;;8.15;;
21239;SDS011;10778;48.962;9.018;2022-11-11T07:54:09;12.85;;;7.40;;
21239;SDS011;10778;48.962;9.018;2022-11-11T07:56:54;15.70;;;8.10;;
21239;SDS011;10778;48.962;9.018;2022-11-11T07:59:38;17.05;;;9.50;;
21239;SDS011;10778;48.962;9.018;2022-11-11T08:02:23;14.88;;;7.70;;
21239;SDS011;10778;48.962;9.018;2022-11-11T08:05:08;15.57;;;8.07;;
21239;SDS011;10778;48.962;9.018;2022-11-11T08:07:53;18.35;;;9.07;;
21239;SDS011;10778;48.962;9.018;2022-11-11T08:10:37;23.13;;;11.20;;
21239;SDS011;10778;48.962;9.018;2022-11-11T08:13:22;19.50;;;10.60;;
21239;SDS011;10778;48.962;9.018;2022-11-11T08:16:25;19.70;;;10.68;;
21239;SDS011;10778;48.962;9.018;2022-11-11T08:19:10;17.20;;;10.32;;
21239;SDS011;10778;48.962;9.018;2022-11-11T08:21:55;17.50;;;10.00;;
21239;SDS011;10778;48.962;9.018;2022-11-11T08:24:39;20.95;;;10.70;;
21239;SDS011;10778;48.962;9.018;2022-11-11T08:27:24;20.27;;;11.27;;
21239;SDS011;10778;48.962;9.018;2022-11-11T08:30:08;17.75;;;10.18;;
21239;SDS011;10778;48.962;9.018;2022-11-11T08:32:57;14.52;;;8.90;;
21239;SDS011;10778;48.962;9.018;2022-11-11T08:35:45;14.30;;;7.93;;
21239;SDS011;10778;48.962;9.018;2022-11-11T08:38:30;16.17;;;9.70;;
21239;SDS011;10778;48.962;9.018;2022-11-11T08:41:15;15.50;;;10.07;;
21239;SDS011;10778;48.962;9.018;2022-11-11T08:43:59;16.08;;;10.30;;
21239;SDS011;10778;48.962;9.018;2022-11-11T08:46:44;14.10;;;8.88;;
21239;SDS011;10778;48.962;9.018;2022-11-11T08:49:28;10.50;;;7.47;;
21239;SDS011;10778;48.962;9.018;2022-11-11T08:52:13;11.27;;;7.28;;
21239;SDS011;10778;48.962;9.018;2022-11-11T08:54:58;10.55;;;7.40;;
21239;SDS011;10778;48.962;9.018;2022-11-11T08:57:43;11.50;;;7.45;;
21239;SDS011;10778;48.962;9.018;2022-11-11T09:00:28;12.23;;;7.40;;
21239;SDS011;10778;48.962;9.018;2022-11-11T09:03:13;8.48;;;6.25;;
21239;SDS011;10778;48.962;9.018;2022-11-11T09:05:57;8.35;;;5.55;;
21239;SDS011;10778;48.962;9.018;2022-11-11T09:08:42;7.90;;;5.30;;
21239;SDS011;10778;48.962;9.018;2022-11-11T09:11:27;6.90;;;5.40;;
21239;SDS011;10778;48.962;9.018;2022-11-11T09:14:19;9.77;;;6.80;;
21239;SDS011;10778;48.962;9.018;2022-11-11T09:17:04;10.82;;;5.88;;
21239;SDS011;10778;48.962;9.018;2022-11-11T09:19:49;8.30;;;5.75;;
21239;SDS011;10778;48.962;9.018;2022-11-11T09:22:40;7.63;;;5.10;;
21239;SDS011;10778;48.962;9.018;2022-11-11T09:25:26;8.15;;;4.82;;
21239;SDS011;10778;48.962;9.018;2022-11-11T09:28:10;11.45;;;6.18;;
21239;SDS011;10778;48.962;9.018;2022-11-11T09:30:55;8.93;;;5.78;;
21239;SDS011;10778;48.962;9.018;2022-11-11T09:33:41;9.40;;;5.25;;
21239;SDS011;10778;48.962;9.018;2022-11-11T09:36:25;9.25;;;5.70;;
21239;SDS011;10778;48.962;9.018;2022-11-11T09:39:10;6.45;;;5.38;;
21239;SDS011;10778;48.962;9.018;2022-11-11T09:44:52;9.27;;;5.68;;
21239;SDS011;10778;48.962;9.018;2022-11-11T09:51:04;7.85;;;5.88;;
21239;SDS011;10778;48.962;9.018;2022-11-11T09:53:57;8.45;;;5.60;;
21239;SDS011;10778;48.962;9.018;2022-11-11T09:56:47;9.10;;;5.43;;
21239;SDS011;10778;48.962;9.018;2022-11-11T09:59:36;10.30;;;5.80;;
21239;SDS011;10778;48.962;9.018;2022-11-11T10:09:00;9.40;;;5.93;;
21239;SDS011;10778;48.962;9.018;2022-11-11T10:12:12;7.00;;;5.40;;
21239;SDS011;10778;48.962;9.018;2022-11-11T10:14:57;7.13;;;5.72;;
21239;SDS011;10778;48.962;9.018;2022-11-11T10:20:54;9.00;;;6.07;;
21239;SDS011;10778;48.962;9.018;2022-11-11T10:23:39;8.73;;;5.95;;
21239;SDS011;10778;48.962;9.018;2022-11-11T10:26:26;9.20;;;5.65;;
21239;SDS011;10778;48.962;9.018;2022-11-11T10:29:16;9.13;;;5.75;;
21239;SDS011;10778;48.962;9.018;2022-11-11T10:32:04;9.90;;;5.75;;
21239;SDS011;10778;48.962;9.018;2022-11-11T10:35:01;10.93;;;5.95;;
21239;SDS011;10778;48.962;9.018;2022-11-11T10:40:54;11.60;;;6.55;;
21239;SDS011;10778;48.962;9.018;2022-11-11T10:43:44;10.05;;;6.80;;
21239;SDS011;10778;48.962;9.018;2022-11-11T10:46:40;11.85;;;6.90;;
21239;SDS011;10778;48.962;9.018;2022-11-11T10:53:11;11.27;;;6.57;;
21239;SDS011;10778;48.962;9.018;2022-11-11T10:59:02;9.23;;;6.55;;
21239;SDS011;10778;48.962;9.018;2022-11-11T11:01:56;11.75;;;6.25;;
21239;SDS011;10778;48.962;9.018;2022-11-11T11:04:52;10.77;;;6.53;;
21239;SDS011;10778;48.962;9.018;2022-11-11T11:07:48;9.02;;;6.15;;
21239;SDS011;10778;48.962;9.018;2022-11-11T11:10:44;11.23;;;6.47;;
21239;SDS011;10778;48.962;9.018;2022-11-11T11:13:39;11.60;;;5.85;;
21239;SDS011;10778;48.962;9.018;2022-11-11T11:16:38;10.45;;;6.10;;
21239;SDS011;10778;48.962;9.018;2022-11-11T11:19:28;7.18;;;5.63;;
21239;SDS011;10778;48.962;9.018;2022-11-11T11:22:13;11.63;;;6.40;;
21239;SDS011;10778;48.962;9.018;2022-11-11T11:25:08;9.30;;;6.15;;
21239;SDS011;10778;48.962;9.018;2022-11-11T11:28:11;10.25;;;6.20;;
21239;SDS011;10778;48.962;9.018;2022-11-11T11:31:03;9.93;;;6.57;;
21239;SDS011;10778;48.962;9.018;2022-11-11T11:33:51;9.80;;;6.32;;
21239;SDS011;10778;48.962;9.018;2022-11-11T11:36:37;12.18;;;8.38;;
21239;SDS011;10778;48.962;9.018;2022-11-11T11:39:39;10.10;;;6.45;;
21239;SDS011;10778;48.962;9.018;2022-11-11T11:42:34;10.10;;;6.30;;
21239;SDS011;10778;48.962;9.018;2022-11-11T11:48:23;8.57;;;6.05;;
21239;SDS011;10778;48.962;9.018;2022-11-11T11:51:29;8.85;;;6.15;;
21239;SDS011;10778;48.962;9.018;2022-11-11T11:57:41;8.55;;;6.03;;
21239;SDS011;10778;48.962;9.018;2022-11-11T12:01:01;12.57;;;6.18;;
21239;SDS011;10778;48.962;9.018;2022-11-11T12:16:59;10.43;;;5.60;;
21239;SDS011;10778;48.962;9.018;2022-11-11T12:20:09;11.70;;;6.10;;
21239;SDS011;10778;48.962;9.018;2022-11-11T12:26:10;8.07;;;5.40;;
21239;SDS011;10778;48.962;9.018;2022-11-11T12:35:25;9.02;;;5.60;;
21239;SDS011;10778;48.962;9.018;2022-11-11T12:47:57;9.20;;;5.25;;
21239;SDS011;10778;48.962;9.018;2022-11-11T12:50:48;7.90;;;4.85;;
21239;SDS011;10778;48.962;9.018;2022-11-11T13:03:09;10.93;;;5.82;;
21239;SDS011;10778;48.962;9.018;2022-11-11T13:18:11;7.43;;;4.90;;
21239;SDS011;10778;48.962;9.018;2022-11-11T13:21:25;8.90;;;4.53;;
21239;SDS011;10778;48.962;9.018;2022-11-11T13:24:20;8.18;;;4.97;;
21239;SDS011;10778;48.962;9.018;2022-11-11T13:27:15;7.53;;;4.35;;
21239;SDS011;10778;48.962;9.018;2022-11-11T13:33:34;6.55;;;4.50;;
21239;SDS011;10778;48.962;9.018;2022-11-11T13:36:24;8.38;;;4.78;;
21239;SDS011;10778;48.962;9.018;2022-11-11T13:39:27;8.75;;;4.72;;
21239;SDS011;10778;48.962;9.018;2022-11-11T13:42:20;8.68;;;4.85;;
21239;SDS011;10778;48.962;9.018;2022-11-11T13:45:25;6.82;;;4.72;;
21239;SDS011;10778;48.962;9.018;2022-11-11T13:48:35;6.55;;;4.40;;
21239;SDS011;10778;48.962;9.018;2022-11-11T13:54:28;8.05;;;4.05;;
21239;SDS011;10778;48.962;9.018;2022-11-11T13:57:17;7.15;;;4.32;;
21239;SDS011;10778;48.962;9.018;2022-11-11T14:00:05;5.70;;;3.63;;
21239;SDS011;10778;48.962;9.018;2022-11-11T14:09:00;5.78;;;4.00;;
21239;SDS011;10778;48.962;9.018;2022-11-11T14:11:45;7.88;;;3.92;;
21239;SDS011;10778;48.962;9.018;2022-11-11T14:17:17;8.93;;;4.95;;
21239;SDS011;10778;48.962;9.018;2022-11-11T14:29:00;5.95;;;3.90;;
21239;SDS011;10778;48.962;9.018;2022-11-11T14:34:58;9.38;;;4.13;;
21239;SDS011;10778;48.962;9.018;2022-11-11T14:40:55;8.48;;;4.55;;
21239;SDS011;10778;48.962;9.018;2022-11-11T14:43:39;7.32;;;4.00;;
21239;SDS011;10778;48.962;9.018;2022-11-11T14:46:24;7.85;;;3.65;;
21239;SDS011;10778;48.962;9.018;2022-11-11T14:49:09;7.38;;;3.40;;
21239;SDS011;10778;48.962;9.018;2022-11-11T14:51:57;7.15;;;4.50;;
21239;SDS011;10778;48.962;9.018;2022-11-11T14:57:50;9.95;;;4.47;;
21239;SDS011;10778;48.962;9.018;2022-11-11T15:06:34;7.88;;;4.47;;
21239;SDS011;10778;48.962;9.018;2022-11-11T15:27:35;9.45;;;6.00;;
21239;SDS011;10778;48.962;9.018;2022-11-11T15:30:47;8.50;;;5.82;;
21239;SDS011;10778;48.962;9.018;2022-11-11T15:37:10;10.50;;;7.75;;
21239;SDS011;10778;48.962;9.018;2022-11-11T15:39:58;12.88;;;7.40;;
21239;SDS011;10778;48.962;9.018;2022-11-11T15:42:44;8.73;;;6.93;;
21239;SDS011;10778;48.962;9.018;2022-11-11T15:45:33;10.93;;;6.80;;
21239;SDS011;10778;48.962;9.018;2022-11-11T15:48:27;8.90;;;6.55;;
21239;SDS011;10778;48.962;9.018;2022-11-11T15:54:09;10.18;;;6.50;;
21239;SDS011;10778;48.962;9.018;2022-11-11T15:57:14;9.27;;;6.28;;
21239;SDS011;10778;48.962;9.018;2022-11-11T16:00:00;10.32;;;6.82;;
21239;SDS011;10778;48.962;9.018;2022-11-11T16:03:02;10.45;;;7.03;;
21239;SDS011;10778;48.962;9.018;2022-11-11T16:05:49;11.38;;;6.90;;
21239;SDS011;10778;48.962;9.018;2022-11-11T16:08:33;12.13;;;7.28;;
21239;SDS011;10778;48.962;9.018;2022-11-11T16:11:18;10.48;;;6.80;;
21239;SDS011;10778;48.962;9.018;2022-11-11T16:14:03;9.27;;;7.10;;
21239;SDS011;10778;48.962;9.018;2022-11-11T16:16:49;10.60;;;6.90;;
21239;SDS011;10778;48.962;9.018;2022-11-11T16:19:35;11.68;;;6.95;;
21239;SDS011;10778;48.962;9.018;2022-11-11T16:22:23;9.50;;;6.85;;
21239;SDS011;10778;48.962;9.018;2022-11-11T16:25:17;10.35;;;7.20;;
21239;SDS011;10778;48.962;9.018;2022-11-11T16:28:04;14.85;;;8.68;;
21239;SDS011;10778;48.962;9.018;2022-11-11T16:30:49;10.43;;;7.68;;
21239;SDS011;10778;48.962;9.018;2022-11-11T16:33:34;12.82;;;7.55;;
21239;SDS011;10778;48.962;9.018;2022-11-11T16:36:19;12.43;;;7.80;;
21239;SDS011;10778;48.962;9.018;2022-11-11T16:39:26;11.93;;;7.20;;
21239;SDS011;10778;48.962;9.018;2022-11-11T16:42:21;9.13;;;6.78;;
21239;SDS011;10778;48.962;9.018;2022-11-11T16:45:18;10.88;;;7.15;;
21239;SDS011;10778;48.962;9.018;2022-11-11T16:48:06;9.57;;;6.90;;
21239;SDS011;10778;48.962;9.018;2022-11-11T16:54:36;12.55;;;8.57;;
21239;SDS011;10778;48.962;9.018;2022-11-11T16:57:26;13.98;;;8.40;;
21239;SDS011;10778;48.962;9.018;2022-11-11T17:00:19;11.35;;;8.15;;
21239;SDS011;10778;48.962;9.018;2022-11-11T17:03:19;18.38;;;13.23;;
21239;SDS011;10778;48.962;9.018;2022-11-11T17:06:06;12.40;;;8.88;;
21239;SDS011;10778;48.962;9.018;2022-11-11T17:08:51;13.95;;;10.50;;
21239;SDS011;10778;48.962;9.018;2022-11-11T17:14:24;16.35;;;10.48;;
21239;SDS011;10778;48.962;9.018;2022-11-11T17:17:10;15.43;;;11.68;;
21239;SDS011;10778;48.962;9.018;2022-11-11T17:20:03;14.85;;;10.95;;
21239;SDS011;10778;48.962;9.018;2022-11-11T17:23:14;19.88;;;12.98;;
21239;SDS011;10778;48.962;9.018;2022-11-11T17:25:59;25.38;;;16.58;;
21239;SDS011;10778;48.962;9.018;2022-11-11T17:28:44;23.35;;;15.75;;
21239;SDS011;10778;48.962;9.018;2022-11-11T17:31:29;27.58;;;17.38;;
21239;SDS011;10778;48.962;9.018;2022-11-11T17:34:14;21.30;;;15.18;;
21239;SDS011;10778;48.962;9.018;2022-11-11T17:36:58;19.90;;;12.38;;
21239;SDS011;10778;48.962;9.018;2022-11-11T17:39:43;14.73;;;10.57;;
21239;SDS011;10778;48.962;9.018;2022-11-11T17:42:28;16.08;;;11.60;;
21239;SDS011;10778;48.962;9.018;2022-11-11T17:45:13;17.70;;;11.70;;
21239;SDS011;10778;48.962;9.018;2022-11-11T17:47:57;16.58;;;12.15;;
21239;SDS011;10778;48.962;9.018;2022-11-11T17:50:42;14.70;;;10.52;;
21239;SDS011;10778;48.962;9.018;2022-11-11T17:53:27;12.60;;;10.63;;
21239;SDS011;10778;48.962;9.018;2022-11-11T17:56:15;14.20;;;10.52;;
21239;SDS011;10778;48.962;9.018;2022-11-11T17:59:00;13.38;;;10.30;;
21239;SDS011;10778;48.962;9.018;2022-11-11T18:01:52;15.95;;;10.85;;
21239;SDS011;10778;48.962;9.018;2022-11-11T18:04:36;14.65;;;10.13;;
21239;SDS011;10778;48.962;9.018;2022-11-11T18:07:22;13.48;;;10.20;;
21239;SDS011;10778;48.962;9.018;2022-11-11T18:10:07;14.23;;;10.90;;
21239;SDS011;10778;48.962;9.018;2022-11-11T18:12:53;14.02;;;10.95;;
21239;SDS011;10778;48.962;9.018;2022-11-11T18:15:38;15.63;;;11.07;;
21239;SDS011;10778;48.962;9.018;2022-11-11T18:18:22;16.38;;;11.70;;
21239;SDS011;10778;48.962;9.018;2022-11-11T18:21:07;17.65;;;12.55;;
21239;SDS011;10778;48.962;9.018;2022-11-11T18:23:52;13.13;;;10.10;;
21239;SDS011;10778;48.962;9.018;2022-11-11T18:26:37;12.25;;;10.07;;
21239;SDS011;10778;48.962;9.018;2022-11-11T18:29:21;13.82;;;10.88;;
21239;SDS011;10778;48.962;9.018;2022-11-11T18:32:06;14.13;;;11.07;;
21239;SDS011;10778;48.962;9.018;2022-11-11T18:34:50;12.13;;;9.43;;
21239;SDS011;10778;48.962;9.018;2022-11-11T18:37:35;11.13;;;8.05;;
21239;SDS011;10778;48.962;9.018;2022-11-11T18:40:21;9.85;;;6.93;;
21239;SDS011;10778;48.962;9.018;2022-11-11T18:43:06;10.15;;;7.88;;
21239;SDS011;10778;48.962;9.018;2022-11-11T18:45:50;11.43;;;8.55;;
21239;SDS011;10778;48.962;9.018;2022-11-11T18:48:35;13.80;;;9.80;;
21239;SDS011;10778;48.962;9.018;2022-11-11T18:51:20;13.07;;;10.38;;
21239;SDS011;10778;48.962;9.018;2022-11-11T18:54:05;17.52;;;12.07;;
21239;SDS011;10778;48.962;9.018;2022-11-11T18:56:50;14.48;;;11.18;;
21239;SDS011;10778;48.962;9.018;2022-11-11T18:59:35;12.20;;;8.57;;
21239;SDS011;10778;48.962;9.018;2022-11-11T19:02:19;8.75;;;7.25;;
21239;SDS011;10778;48.962;9.018;2022-11-11T19:05:04;10.50;;;8.48;;
21239;SDS011;10778;48.962;9.018;2022-11-11T19:07:49;14.43;;;11.18;;
21239;SDS011;10778;48.962;9.018;2022-11-11T19:10:33;17.02;;;11.73;;
21239;SDS011;10778;48.962;9.018;2022-11-11T19:13:18;16.33;;;11.65;;
21239;SDS011;10778;48.962;9.018;2022-11-11T19:16:07;17.00;;;11.52;;
21239;SDS011;10778;48.962;9.018;2022-11-11T19:18:54;16.02;;;10.50;;
21239;SDS011;10778;48.962;9.018;2022-11-11T19:21:38;15.63;;;10.35;;
21239;SDS011;10778;48.962;9.018;2022-11-11T19:24:23;16.50;;;9.95;;
21239;SDS011;10778;48.962;9.018;2022-11-11T19:27:08;20.00;;;11.82;;
21239;SDS011;10778;48.962;9.018;2022-11-11T19:29:52;23.63;;;13.48;;
21239;SDS011;10778;48.962;9.018;2022-11-11T19:32:37;19.35;;;11.20;;
21239;SDS011;10778;48.962;9.018;2022-11-11T19:35:21;24.52;;;12.73;;
21239;SDS011;10778;48.962;9.018;2022-11-11T19:38:05;26.17;;;14.52;;